sensor_id;sensor_type;location;lat;lon;timestamp;P1;durP1;ratioP1;P2;durP2;ratioP2
2650;SDS011;1335;48.180;16.342;2022-11-18T00:01:41;18.60;;;16.70;;
2650;SDS011;1335;48.180;16.342;2022-11-18T00:04:10;19.47;;;16.57;;
2650;SDS011;1335;48.180;16.342;2022-11-18T00:06:38;17.63;;;15.83;;
2650;SDS011;1335;48.180;16.342;2022-11-18T00:09:06;18.57;;;15.57;;
2650;SDS011;1335;48.180;16.342;2022-11-18T00:11:36;20.50;;;18.27;;
2650;SDS011;1335;48.180;16.342;2022-11-18T00:14:24;18.93;;;16.27;;
2650;SDS011;1335;48.180;16.342;2022-11-18T00:16:52;22.30;;;19.20;;
2650;SDS011;1335;48.180;16.342;2022-11-18T00:19:22;20.03;;;17.90;;
2650;SDS011;1335;48.180;16.342;2022-11-18T00:21:52;22.60;;;18.80;;
2650;SDS011;1335;48.180;16.342;2022-11-18T00:24:20;22.43;;;18.03;;
2650;SDS011;1335;48.180;16.342;2022-11-18T00:26:49;21.40;;;17.87;;
2650;SDS011;1335;48.180;16.342;2022-11-18T00:29:18;25.13;;;20.00;;
2650;SDS011;1335;48.180;16.342;2022-11-18T00:31:50;25.50;;;19.67;;
2650;SDS011;1335;48.180;16.342;2022-11-18T00:34:19;25.33;;;20.00;;
2650;SDS011;1335;48.180;16.342;2022-11-18T00:36:50;27.40;;;19.97;;
2650;SDS011;1335;48.180;16.342;2022-11-18T00:39:19;26.57;;;19.60;;
2650;SDS011;1335;48.180;16.342;2022-11-18T00:41:48;28.73;;;19.50;;
2650;SDS011;1335;48.180;16.342;2022-11-18T00:44:33;31.53;;;21.10;;
2650;SDS011;1335;48.180;16.342;2022-11-18T00:47:03;30.60;;;20.77;;
2650;SDS011;1335;48.180;16.342;2022-11-18T00:49:32;26.87;;;19.67;;
2650;SDS011;1335;48.180;16.342;2022-11-18T00:52:01;27.90;;;19.20;;
2650;SDS011;1335;48.180;16.342;2022-11-18T00:54:30;30.37;;;20.03;;
2650;SDS011;1335;48.180;16.342;2022-11-18T00:57:01;23.70;;;18.70;;
2650;SDS011;1335;48.180;16.342;2022-11-18T00:59:30;31.60;;;19.80;;
2650;SDS011;1335;48.180;16.342;2022-11-18T01:01:58;25.53;;;19.20;;
2650;SDS011;1335;48.180;16.342;2022-11-18T01:04:29;27.50;;;20.53;;
2650;SDS011;1335;48.180;16.342;2022-11-18T01:06:57;24.80;;;17.87;;
2650;SDS011;1335;48.180;16.342;2022-11-18T01:09:26;28.70;;;19.40;;
2650;SDS011;1335;48.180;16.342;2022-11-18T01:11:57;32.20;;;20.03;;
2650;SDS011;1335;48.180;16.342;2022-11-18T01:14:42;27.30;;;18.50;;
2650;SDS011;1335;48.180;16.342;2022-11-18T01:17:11;26.97;;;18.23;;
2650;SDS011;1335;48.180;16.342;2022-11-18T01:19:42;26.57;;;18.90;;
2650;SDS011;1335;48.180;16.342;2022-11-18T01:22:11;28.77;;;20.10;;
2650;SDS011;1335;48.180;16.342;2022-11-18T01:24:39;24.53;;;18.40;;
2650;SDS011;1335;48.180;16.342;2022-11-18T01:27:07;29.30;;;19.57;;
2650;SDS011;1335;48.180;16.342;2022-11-18T01:29:35;26.13;;;18.63;;
2650;SDS011;1335;48.180;16.342;2022-11-18T01:32:05;25.53;;;18.93;;
2650;SDS011;1335;48.180;16.342;2022-11-18T01:34:34;26.03;;;18.73;;
2650;SDS011;1335;48.180;16.342;2022-11-18T01:37:05;27.40;;;19.07;;
2650;SDS011;1335;48.180;16.342;2022-11-18T01:39:34;29.03;;;19.03;;
2650;SDS011;1335;48.180;16.342;2022-11-18T01:42:04;28.13;;;18.33;;
2650;SDS011;1335;48.180;16.342;2022-11-18T01:44:55;26.90;;;17.37;;
2650;SDS011;1335;48.180;16.342;2022-11-18T01:47:31;33.53;;;19.00;;
2650;SDS011;1335;48.180;16.342;2022-11-18T01:50:02;28.97;;;20.37;;
2650;SDS011;1335;48.180;16.342;2022-11-18T01:52:33;27.30;;;19.80;;
2650;SDS011;1335;48.180;16.342;2022-11-18T01:55:05;25.37;;;17.67;;
2650;SDS011;1335;48.180;16.342;2022-11-18T01:57:39;25.37;;;17.03;;
2650;SDS011;1335;48.180;16.342;2022-11-18T02:00:10;27.60;;;18.90;;
2650;SDS011;1335;48.180;16.342;2022-11-18T02:02:40;35.70;;;20.87;;
2650;SDS011;1335;48.180;16.342;2022-11-18T02:05:09;34.87;;;23.20;;
2650;SDS011;1335;48.180;16.342;2022-11-18T02:07:40;28.47;;;19.60;;
2650;SDS011;1335;48.180;16.342;2022-11-18T02:10:17;35.07;;;20.97;;
2650;SDS011;1335;48.180;16.342;2022-11-18T02:12:48;32.30;;;22.30;;
2650;SDS011;1335;48.180;16.342;2022-11-18T02:15:17;32.63;;;22.80;;
2650;SDS011;1335;48.180;16.342;2022-11-18T02:17:52;30.57;;;21.40;;
2650;SDS011;1335;48.180;16.342;2022-11-18T02:20:29;38.57;;;22.73;;
2650;SDS011;1335;48.180;16.342;2022-11-18T02:26:22;38.00;;;22.50;;
2650;SDS011;1335;48.180;16.342;2022-11-18T02:29:09;38.60;;;22.97;;
2650;SDS011;1335;48.180;16.342;2022-11-18T02:31:44;41.13;;;23.57;;
2650;SDS011;1335;48.180;16.342;2022-11-18T02:34:22;35.27;;;22.77;;
2650;SDS011;1335;48.180;16.342;2022-11-18T02:37:00;38.23;;;24.43;;
2650;SDS011;1335;48.180;16.342;2022-11-18T02:39:34;33.13;;;22.20;;
2650;SDS011;1335;48.180;16.342;2022-11-18T02:42:06;37.20;;;22.57;;
2650;SDS011;1335;48.180;16.342;2022-11-18T02:44:41;41.70;;;24.23;;
2650;SDS011;1335;48.180;16.342;2022-11-18T02:47:16;45.50;;;24.50;;
2650;SDS011;1335;48.180;16.342;2022-11-18T02:49:52;37.90;;;22.23;;
2650;SDS011;1335;48.180;16.342;2022-11-18T02:52:26;41.00;;;23.20;;
2650;SDS011;1335;48.180;16.342;2022-11-18T02:54:58;38.60;;;24.40;;
2650;SDS011;1335;48.180;16.342;2022-11-18T02:57:29;38.83;;;22.60;;
2650;SDS011;1335;48.180;16.342;2022-11-18T03:00:03;39.70;;;23.63;;
2650;SDS011;1335;48.180;16.342;2022-11-18T03:02:39;47.57;;;25.87;;
2650;SDS011;1335;48.180;16.342;2022-11-18T03:05:10;43.97;;;26.77;;
2650;SDS011;1335;48.180;16.342;2022-11-18T03:07:43;39.30;;;23.10;;
2650;SDS011;1335;48.180;16.342;2022-11-18T03:10:17;36.00;;;23.73;;
2650;SDS011;1335;48.180;16.342;2022-11-18T03:12:51;42.77;;;24.23;;
2650;SDS011;1335;48.180;16.342;2022-11-18T03:15:31;37.87;;;23.30;;
2650;SDS011;1335;48.180;16.342;2022-11-18T03:18:11;41.87;;;22.90;;
2650;SDS011;1335;48.180;16.342;2022-11-18T03:20:46;37.33;;;23.90;;
2650;SDS011;1335;48.180;16.342;2022-11-18T03:23:20;42.63;;;23.30;;
2650;SDS011;1335;48.180;16.342;2022-11-18T03:25:54;37.90;;;22.63;;
2650;SDS011;1335;48.180;16.342;2022-11-18T03:28:26;43.63;;;22.77;;
2650;SDS011;1335;48.180;16.342;2022-11-18T03:31:05;36.80;;;22.40;;
2650;SDS011;1335;48.180;16.342;2022-11-18T03:33:42;32.43;;;20.93;;
2650;SDS011;1335;48.180;16.342;2022-11-18T03:36:16;28.23;;;18.67;;
2650;SDS011;1335;48.180;16.342;2022-11-18T03:38:50;32.40;;;20.10;;
2650;SDS011;1335;48.180;16.342;2022-11-18T03:41:24;22.90;;;17.50;;
2650;SDS011;1335;48.180;16.342;2022-11-18T03:43:56;27.30;;;18.00;;
2650;SDS011;1335;48.180;16.342;2022-11-18T03:46:33;24.10;;;17.60;;
2650;SDS011;1335;48.180;16.342;2022-11-18T03:49:10;25.73;;;18.03;;
2650;SDS011;1335;48.180;16.342;2022-11-18T03:51:45;27.07;;;18.20;;
2650;SDS011;1335;48.180;16.342;2022-11-18T03:54:20;27.07;;;17.20;;
2650;SDS011;1335;48.180;16.342;2022-11-18T03:56:55;27.57;;;17.77;;
2650;SDS011;1335;48.180;16.342;2022-11-18T03:59:28;26.40;;;17.27;;
2650;SDS011;1335;48.180;16.342;2022-11-18T04:02:05;26.00;;;17.30;;
2650;SDS011;1335;48.180;16.342;2022-11-18T04:04:41;26.07;;;18.07;;
2650;SDS011;1335;48.180;16.342;2022-11-18T04:07:15;28.50;;;19.67;;
2650;SDS011;1335;48.180;16.342;2022-11-18T04:09:52;28.87;;;17.67;;
2650;SDS011;1335;48.180;16.342;2022-11-18T04:12:26;26.43;;;17.83;;
2650;SDS011;1335;48.180;16.342;2022-11-18T04:14:59;23.30;;;17.00;;
2650;SDS011;1335;48.180;16.342;2022-11-18T04:17:32;33.40;;;20.03;;
2650;SDS011;1335;48.180;16.342;2022-11-18T04:20:02;26.80;;;18.33;;
2650;SDS011;1335;48.180;16.342;2022-11-18T04:22:33;32.50;;;20.07;;
2650;SDS011;1335;48.180;16.342;2022-11-18T04:25:02;34.60;;;21.20;;
2650;SDS011;1335;48.180;16.342;2022-11-18T04:27:33;31.50;;;20.73;;
2650;SDS011;1335;48.180;16.342;2022-11-18T04:30:04;28.70;;;20.87;;
2650;SDS011;1335;48.180;16.342;2022-11-18T04:32:37;33.33;;;21.10;;
2650;SDS011;1335;48.180;16.342;2022-11-18T04:35:11;30.80;;;21.20;;
2650;SDS011;1335;48.180;16.342;2022-11-18T04:37:43;31.27;;;20.37;;
2650;SDS011;1335;48.180;16.342;2022-11-18T04:40:14;34.73;;;22.77;;
2650;SDS011;1335;48.180;16.342;2022-11-18T04:42:45;31.63;;;20.53;;
2650;SDS011;1335;48.180;16.342;2022-11-18T04:45:16;31.37;;;21.73;;
2650;SDS011;1335;48.180;16.342;2022-11-18T04:47:48;32.90;;;20.87;;
2650;SDS011;1335;48.180;16.342;2022-11-18T04:50:18;29.20;;;20.17;;
2650;SDS011;1335;48.180;16.342;2022-11-18T04:52:48;28.90;;;19.97;;
2650;SDS011;1335;48.180;16.342;2022-11-18T04:55:18;27.00;;;19.50;;
2650;SDS011;1335;48.180;16.342;2022-11-18T04:57:48;31.00;;;21.40;;
2650;SDS011;1335;48.180;16.342;2022-11-18T05:00:17;29.43;;;19.73;;
2650;SDS011;1335;48.180;16.342;2022-11-18T05:02:49;26.70;;;19.20;;
2650;SDS011;1335;48.180;16.342;2022-11-18T05:05:18;27.30;;;19.30;;
2650;SDS011;1335;48.180;16.342;2022-11-18T05:07:47;32.07;;;20.07;;
2650;SDS011;1335;48.180;16.342;2022-11-18T05:10:16;28.37;;;19.83;;
2650;SDS011;1335;48.180;16.342;2022-11-18T05:12:45;29.63;;;20.60;;
2650;SDS011;1335;48.180;16.342;2022-11-18T05:15:17;27.87;;;19.20;;
2650;SDS011;1335;48.180;16.342;2022-11-18T05:17:51;29.47;;;20.50;;
2650;SDS011;1335;48.180;16.342;2022-11-18T05:20:22;36.03;;;22.00;;
2650;SDS011;1335;48.180;16.342;2022-11-18T05:22:51;32.20;;;20.90;;
2650;SDS011;1335;48.180;16.342;2022-11-18T05:25:22;33.47;;;22.20;;
2650;SDS011;1335;48.180;16.342;2022-11-18T05:27:52;33.57;;;21.23;;
2650;SDS011;1335;48.180;16.342;2022-11-18T05:30:21;31.40;;;20.90;;
2650;SDS011;1335;48.180;16.342;2022-11-18T05:32:54;30.83;;;21.20;;
2650;SDS011;1335;48.180;16.342;2022-11-18T05:35:24;32.50;;;20.20;;
2650;SDS011;1335;48.180;16.342;2022-11-18T05:37:53;35.90;;;21.87;;
2650;SDS011;1335;48.180;16.342;2022-11-18T05:40:23;32.60;;;21.10;;
2650;SDS011;1335;48.180;16.342;2022-11-18T05:42:52;36.57;;;22.53;;
2650;SDS011;1335;48.180;16.342;2022-11-18T05:45:39;36.80;;;22.00;;
2650;SDS011;1335;48.180;16.342;2022-11-18T05:48:15;32.07;;;20.47;;
2650;SDS011;1335;48.180;16.342;2022-11-18T05:50:49;28.80;;;20.40;;
2650;SDS011;1335;48.180;16.342;2022-11-18T05:53:20;34.83;;;22.33;;
2650;SDS011;1335;48.180;16.342;2022-11-18T05:55:53;31.97;;;20.40;;
2650;SDS011;1335;48.180;16.342;2022-11-18T05:58:27;34.20;;;21.47;;
2650;SDS011;1335;48.180;16.342;2022-11-18T06:00:59;33.17;;;20.60;;
2650;SDS011;1335;48.180;16.342;2022-11-18T06:03:36;35.63;;;21.50;;
2650;SDS011;1335;48.180;16.342;2022-11-18T06:06:08;32.60;;;20.73;;
2650;SDS011;1335;48.180;16.342;2022-11-18T06:08:43;31.87;;;19.40;;
2650;SDS011;1335;48.180;16.342;2022-11-18T06:11:21;30.30;;;18.40;;
2650;SDS011;1335;48.180;16.342;2022-11-18T06:13:53;28.77;;;18.97;;
2650;SDS011;1335;48.180;16.342;2022-11-18T06:16:28;34.03;;;19.77;;
2650;SDS011;1335;48.180;16.342;2022-11-18T06:19:00;25.87;;;18.13;;
2650;SDS011;1335;48.180;16.342;2022-11-18T06:21:32;28.47;;;19.83;;
2650;SDS011;1335;48.180;16.342;2022-11-18T06:24:06;26.30;;;18.73;;
2650;SDS011;1335;48.180;16.342;2022-11-18T06:26:37;29.30;;;18.00;;
2650;SDS011;1335;48.180;16.342;2022-11-18T06:29:09;24.33;;;17.60;;
2650;SDS011;1335;48.180;16.342;2022-11-18T06:31:42;23.70;;;16.93;;
2650;SDS011;1335;48.180;16.342;2022-11-18T06:34:15;26.00;;;18.40;;
2650;SDS011;1335;48.180;16.342;2022-11-18T06:36:46;28.93;;;19.00;;
2650;SDS011;1335;48.180;16.342;2022-11-18T06:39:18;24.77;;;17.20;;
2650;SDS011;1335;48.180;16.342;2022-11-18T06:41:48;23.60;;;15.40;;
2650;SDS011;1335;48.180;16.342;2022-11-18T06:44:22;24.83;;;16.70;;
2650;SDS011;1335;48.180;16.342;2022-11-18T06:46:51;18.30;;;14.50;;
2650;SDS011;1335;48.180;16.342;2022-11-18T06:49:27;21.00;;;14.70;;
2650;SDS011;1335;48.180;16.342;2022-11-18T06:51:59;25.77;;;16.70;;
2650;SDS011;1335;48.180;16.342;2022-11-18T06:54:28;21.37;;;14.10;;
2650;SDS011;1335;48.180;16.342;2022-11-18T06:56:59;22.50;;;13.83;;
2650;SDS011;1335;48.180;16.342;2022-11-18T06:59:30;22.03;;;15.17;;
2650;SDS011;1335;48.180;16.342;2022-11-18T07:02:03;24.37;;;16.03;;
2650;SDS011;1335;48.180;16.342;2022-11-18T07:04:38;19.43;;;15.13;;
2650;SDS011;1335;48.180;16.342;2022-11-18T07:07:09;22.93;;;15.43;;
